Time;durP1;ratioP1;P1;durP2;ratioP2;P2;SDS_P1;SDS_P2;PMS_P1;PMS_P2;Temp;Humidity;BMP_temperature;BMP_pressure;BME280_temperature;BME280_humidity;BME280_pressure;Samples;Min_cycle;Max_cycle;Signal;HPM_P1;HPM_P2
2022/09/25 00:00:41;;;;;;;0.00;0.00;;;;;;;;;;1740388;28;20561;-73
2022/09/25 00:01:33;;;;;;;0.00;0.00;;;;;;;;;;1739364;28;20214;-73
2022/09/25 00:02:25;;;;;;;0.00;0.00;;;;;;;;;;1739681;28;20308;-73
2022/09/25 00:03:18;;;;;;;0.00;0.00;;;;;;;;;;1739715;28;20203;-73
2022/09/25 00:04:09;;;;;;;0.00;0.00;;;;;;;;;;1739738;28;20195;-73
2022/09/25 00:05:03;;;;;;;0.00;0.00;;;;;;;;;;1739573;28;20545;-73
2022/09/25 00:06:00;;;;;;;0.00;0.00;;;;;;;;;;1739743;28;20211;-73
2022/09/25 00:06:52;;;;;;;0.00;0.00;;;;;;;;;;1739513;28;20891;-72
2022/09/25 00:07:43;;;;;;;0.00;0.00;;;;;;;;;;1739835;28;20287;-71
2022/09/25 00:08:35;;;;;;;0.00;0.00;;;;;;;;;;1739005;28;20211;-72
2022/09/25 00:09:26;;;;;;;0.00;0.00;;;;;;;;;;1739508;28;20203;-72
2022/09/25 00:10:18;;;;;;;0.00;0.00;;;;;;;;;;1739811;28;20211;-72
2022/09/25 00:11:11;;;;;;;0.00;0.00;;;;;;;;;;1740471;28;20207;-72
2022/09/25 00:12:03;;;;;;;0.00;0.00;;;;;;;;;;1739883;28;20242;-72
2022/09/25 00:12:54;;;;;;;0.00;0.00;;;;;;;;;;1740292;28;20226;-73
2022/09/25 00:13:47;;;;;;;0.00;0.00;;;;;;;;;;1740139;28;20199;-73
2022/09/25 00:14:38;;;;;;;0.00;0.00;;;;;;;;;;1739868;28;20203;-73
2022/09/25 00:15:30;;;;;;;0.00;0.00;;;;;;;;;;1739491;28;20272;-73
2022/09/25 00:16:21;;;;;;;0.00;0.00;;;;;;;;;;1739644;28;20604;-73
2022/09/25 00:17:13;;;;;;;0.00;0.00;;;;;;;;;;1739131;28;20226;-73
2022/09/25 00:18:06;;;;;;;0.00;0.00;;;;;;;;;;1739595;28;20335;-73
2022/09/25 00:20:08;;;;;;;0.00;0.00;;;;;;;;;;1740252;28;20293;-73
2022/09/25 00:21:01;;;;;;;0.00;0.00;;;;;;;;;;1740404;28;20257;-72
2022/09/25 00:21:52;;;;;;;0.00;0.00;;;;;;;;;;1739943;28;20445;-72
2022/09/25 00:22:44;;;;;;;0.00;0.00;;;;;;;;;;1739702;28;20378;-72
2022/09/25 00:23:35;;;;;;;0.00;0.00;;;;;;;;;;1739407;28;20210;-72
2022/09/25 00:24:27;;;;;;;0.00;0.00;;;;;;;;;;1739626;28;20195;-72
2022/09/25 00:25:19;;;;;;;0.00;0.00;;;;;;;;;;1739740;28;20247;-71
2022/09/25 00:26:11;;;;;;;0.00;0.00;;;;;;;;;;1739813;28;20195;-72
2022/09/25 00:27:02;;;;;;;0.00;0.00;;;;;;;;;;1740127;28;20207;-71
2022/09/25 00:27:54;;;;;;;0.10;0.10;;;;;;;;;;1740191;28;20211;-72
2022/09/25 00:28:45;;;;;;;0.00;0.00;;;;;;;;;;1740102;28;20664;-71
2022/09/25 00:29:38;;;;;;;0.00;0.00;;;;;;;;;;1740232;28;20312;-72
2022/09/25 00:30:29;;;;;;;0.00;0.00;;;;;;;;;;1739718;28;20199;-71
2022/09/25 00:31:23;;;;;;;0.00;0.00;;;;;;;;;;1739465;28;20211;-71
2022/09/25 00:32:14;;;;;;;0.00;0.00;;;;;;;;;;1739177;28;20226;-72
2022/09/25 00:33:07;;;;;;;0.00;0.00;;;;;;;;;;1739369;28;20218;-71
2022/09/25 00:33:59;;;;;;;0.00;0.00;;;;;;;;;;1739410;28;20207;-71
2022/09/25 00:34:51;;;;;;;0.00;0.00;;;;;;;;;;1739241;28;20264;-72
2022/09/25 00:35:42;;;;;;;0.00;0.00;;;;;;;;;;1739557;28;20264;-71
2022/09/25 00:36:34;;;;;;;0.00;0.00;;;;;;;;;;1739062;28;20231;-71
2022/09/25 00:37:26;;;;;;;0.00;0.00;;;;;;;;;;1739442;28;20588;-71
2022/09/25 00:38:18;;;;;;;0.00;0.00;;;;;;;;;;1738732;28;20199;-71
2022/09/25 00:39:09;;;;;;;0.00;0.00;;;;;;;;;;1739360;28;20544;-71
2022/09/25 00:40:02;;;;;;;0.00;0.00;;;;;;;;;;1739202;28;20202;-71
2022/09/25 00:40:54;;;;;;;0.00;0.00;;;;;;;;;;1739160;28;20518;-71
2022/09/25 00:41:46;;;;;;;0.00;0.00;;;;;;;;;;1739465;28;20242;-71
2022/09/25 00:42:37;;;;;;;0.00;0.00;;;;;;;;;;1740077;28;20229;-71
2022/09/25 00:43:37;;;;;;;0.00;0.00;;;;;;;;;;1739410;28;21627;-71
2022/09/25 00:44:46;;;;;;;0.00;0.00;;;;;;;;;;1740376;28;20194;-71
2022/09/25 00:45:39;;;;;;;0.00;0.00;;;;;;;;;;1740322;28;20230;-71
2022/09/25 00:46:31;;;;;;;0.00;0.00;;;;;;;;;;1739720;28;20240;-72
2022/09/25 00:47:32;;;;;;;0.00;0.00;;;;;;;;;;1739234;28;20260;-72
2022/09/25 00:48:24;;;;;;;0.00;0.00;;;;;;;;;;1727821;28;20189;-72
2022/09/25 00:49:17;;;;;;;0.00;0.00;;;;;;;;;;1732239;28;20238;-72
2022/09/25 00:50:13;;;;;;;0.00;0.00;;;;;;;;;;1732693;28;20208;-72
2022/09/25 00:51:05;;;;;;;0.00;0.00;;;;;;;;;;1733070;28;20208;-72
2022/09/25 00:51:57;;;;;;;0.00;0.00;;;;;;;;;;1733053;28;20276;-72
2022/09/25 00:52:50;;;;;;;0.00;0.00;;;;;;;;;;1733270;28;20241;-72
2022/09/25 00:53:41;;;;;;;0.00;0.00;;;;;;;;;;1732395;28;20557;-72
2022/09/25 00:54:35;;;;;;;0.00;0.00;;;;;;;;;;1732819;28;20665;-72
2022/09/25 00:55:26;;;;;;;0.00;0.00;;;;;;;;;;1732726;28;20400;-72
2022/09/25 00:56:18;;;;;;;0.00;0.00;;;;;;;;;;1732638;28;20642;-72
2022/09/25 00:57:12;;;;;;;0.00;0.00;;;;;;;;;;1732305;28;20204;-72
2022/09/25 00:58:04;;;;;;;0.00;0.00;;;;;;;;;;1732533;28;20433;-72
2022/09/25 00:58:55;;;;;;;0.00;0.00;;;;;;;;;;1732397;28;20338;-72
2022/09/25 00:59:50;;;;;;;0.00;0.00;;;;;;;;;;1732136;28;20207;-72
2022/09/25 01:00:41;;;;;;;0.00;0.00;;;;;;;;;;1732822;28;20276;-72
2022/09/25 01:01:33;;;;;;;0.00;0.00;;;;;;;;;;1731966;28;20203;-71
2022/09/25 01:02:26;;;;;;;0.00;0.00;;;;;;;;;;1732478;28;20203;-71
2022/09/25 01:03:19;;;;;;;0.00;0.00;;;;;;;;;;1732652;28;20656;-71
2022/09/25 01:04:12;;;;;;;0.00;0.00;;;;;;;;;;1732415;28;20257;-71
2022/09/25 01:05:09;;;;;;;0.00;0.00;;;;;;;;;;1732477;28;20215;-71
2022/09/25 01:06:00;;;;;;;0.00;0.00;;;;;;;;;;1732428;28;20207;-71
2022/09/25 01:06:52;;;;;;;0.00;0.00;;;;;;;;;;1732361;28;20298;-71
2022/09/25 01:07:44;;;;;;;0.00;0.00;;;;;;;;;;1732480;28;20463;-71
2022/09/25 01:08:37;;;;;;;0.00;0.00;;;;;;;;;;1732621;28;20314;-71
2022/09/25 01:09:28;;;;;;;0.00;0.00;;;;;;;;;;1732116;28;20253;-71
2022/09/25 01:10:20;;;;;;;0.00;0.00;;;;;;;;;;1732478;28;20634;-71
2022/09/25 01:11:11;;;;;;;0.00;0.00;;;;;;;;;;1733286;28;20207;-71
2022/09/25 01:12:03;;;;;;;0.00;0.00;;;;;;;;;;1732807;28;20237;-71
2022/09/25 01:12:55;;;;;;;0.00;0.00;;;;;;;;;;1732994;28;20223;-71
2022/09/25 01:13:48;;;;;;;0.00;0.00;;;;;;;;;;1733171;28;20234;-71
2022/09/25 01:14:39;;;;;;;0.00;0.00;;;;;;;;;;1732250;28;20214;-71
2022/09/25 01:15:37;;;;;;;0.00;0.00;;;;;;;;;;1732306;28;20641;-71
2022/09/25 01:16:32;;;;;;;0.00;0.00;;;;;;;;;;1732123;28;20482;-71
2022/09/25 01:17:26;;;;;;;0.00;0.00;;;;;;;;;;1732197;28;20208;-71
2022/09/25 01:18:24;;;;;;;0.00;0.00;;;;;;;;;;1732248;28;20210;-71
2022/09/25 01:19:25;;;;;;;0.00;0.00;;;;;;;;;;1732276;28;20184;-71
2022/09/25 01:20:24;;;;;;;0.00;0.00;;;;;;;;;;1731267;28;20689;-71
2022/09/25 01:21:19;;;;;;;0.00;0.00;;;;;;;;;;1732540;28;20514;-71
2022/09/25 01:22:16;;;;;;;0.00;0.00;;;;;;;;;;1731937;28;20265;-71
2022/09/25 01:23:16;;;;;;;0.00;0.00;;;;;;;;;;1732546;28;20381;-71
2022/09/25 01:24:25;;;;;;;0.00;0.00;;;;;;;;;;1732430;28;20606;-71
2022/09/25 01:25:22;;;;;;;0.00;0.00;;;;;;;;;;1722231;28;20200;-71
2022/09/25 01:26:24;;;;;;;0.00;0.00;;;;;;;;;;1732158;28;20200;-72
2022/09/25 01:27:36;;;;;;;0.00;0.00;;;;;;;;;;1732078;28;20200;-72
2022/09/25 01:28:47;;;;;;;0.00;0.00;;;;;;;;;;1732221;28;20208;-72
2022/09/25 01:29:41;;;;;;;0.00;0.00;;;;;;;;;;1732196;28;20204;-72
2022/09/25 01:30:37;;;;;;;0.00;0.00;;;;;;;;;;1732524;28;20704;-72
2022/09/25 01:31:32;;;;;;;0.00;0.00;;;;;;;;;;1733139;28;20188;-71
2022/09/25 01:32:27;;;;;;;0.00;0.00;;;;;;;;;;1732922;28;20199;-71
2022/09/25 01:33:23;;;;;;;0.00;0.00;;;;;;;;;;1733294;28;20689;-71
2022/09/25 01:34:18;;;;;;;0.00;0.00;;;;;;;;;;1732903;28;20594;-71
2022/09/25 01:35:13;;;;;;;0.00;0.00;;;;;;;;;;1732326;28;20227;-72
2022/09/25 01:36:09;;;;;;;0.00;0.00;;;;;;;;;;1733031;28;20617;-71
2022/09/25 01:37:03;;;;;;;0.00;0.00;;;;;;;;;;1738843;28;20206;-71
2022/09/25 01:37:58;;;;;;;0.00;0.00;;;;;;;;;;1739161;28;20268;-71
2022/09/25 01:38:52;;;;;;;0.00;0.00;;;;;;;;;;1739611;28;20640;-71
2022/09/25 01:39:46;;;;;;;0.00;0.00;;;;;;;;;;1739735;28;20828;-71
2022/09/25 01:40:40;;;;;;;0.00;0.00;;;;;;;;;;1739744;28;20203;-71
2022/09/25 01:41:35;;;;;;;0.00;0.00;;;;;;;;;;1739826;28;20510;-71
2022/09/25 01:42:29;;;;;;;0.00;0.00;;;;;;;;;;1739625;28;20203;-72
2022/09/25 01:43:23;;;;;;;0.00;0.00;;;;;;;;;;1738971;28;20297;-71
2022/09/25 01:44:17;;;;;;;0.00;0.00;;;;;;;;;;1739307;28;20203;-71
2022/09/25 01:45:14;;;;;;;0.00;0.00;;;;;;;;;;1739141;28;20738;-71
2022/09/25 01:46:10;;;;;;;0.00;0.00;;;;;;;;;;1739151;28;20210;-72
2022/09/25 01:47:07;;;;;;;0.00;0.00;;;;;;;;;;1739053;28;20191;-72
2022/09/25 01:48:00;;;;;;;0.00;0.00;;;;;;;;;;1739350;28;20187;-72
2022/09/25 01:48:54;;;;;;;0.00;0.00;;;;;;;;;;1739096;28;20214;-72
2022/09/25 01:49:48;;;;;;;0.00;0.00;;;;;;;;;;1738874;28;20203;-72
2022/09/25 01:50:42;;;;;;;0.00;0.00;;;;;;;;;;1739137;28;20270;-72
2022/09/25 01:51:35;;;;;;;0.00;0.00;;;;;;;;;;1738588;28;20665;-71
2022/09/25 01:52:31;;;;;;;0.00;0.00;;;;;;;;;;1738964;28;20211;-71
2022/09/25 01:53:25;;;;;;;0.00;0.00;;;;;;;;;;1738768;28;20730;-71
2022/09/25 01:54:21;;;;;;;0.00;0.00;;;;;;;;;;1739243;28;20271;-71
2022/09/25 01:55:14;;;;;;;0.00;0.00;;;;;;;;;;1739357;28;20964;-71
2022/09/25 01:56:08;;;;;;;0.00;0.00;;;;;;;;;;1739137;28;20625;-72
2022/09/25 01:57:02;;;;;;;0.00;0.00;;;;;;;;;;1738760;28;20210;-72
2022/09/25 01:57:56;;;;;;;0.00;0.00;;;;;;;;;;1738947;28;20255;-72
2022/09/25 01:58:51;;;;;;;0.00;0.00;;;;;;;;;;1739673;28;20203;-72
2022/09/25 01:59:44;;;;;;;0.00;0.00;;;;;;;;;;1739499;28;20630;-72
2022/09/25 02:00:38;;;;;;;0.00;0.00;;;;;;;;;;1739805;28;20303;-72
2022/09/25 02:01:31;;;;;;;0.00;0.00;;;;;;;;;;1739378;28;20244;-71
2022/09/25 02:02:27;;;;;;;0.00;0.00;;;;;;;;;;1739133;28;20217;-71
2022/09/25 02:03:21;;;;;;;0.00;0.00;;;;;;;;;;1738803;28;20518;-71
2022/09/25 02:04:14;;;;;;;0.00;0.00;;;;;;;;;;1739034;28;20290;-71
2022/09/25 02:05:09;;;;;;;0.00;0.00;;;;;;;;;;1739071;28;20206;-71
2022/09/25 02:06:01;;;;;;;0.00;0.00;;;;;;;;;;1738831;28;20213;-71
2022/09/25 02:06:55;;;;;;;0.00;0.00;;;;;;;;;;1738629;28;20230;-71
2022/09/25 02:07:48;;;;;;;0.00;0.00;;;;;;;;;;1738718;28;20207;-71
2022/09/25 02:08:42;;;;;;;0.00;0.00;;;;;;;;;;1738734;28;20210;-72
2022/09/25 02:09:38;;;;;;;0.00;0.00;;;;;;;;;;1738683;28;20207;-71
2022/09/25 02:10:33;;;;;;;0.00;0.00;;;;;;;;;;1739404;28;20205;-71
2022/09/25 02:11:27;;;;;;;0.00;0.00;;;;;;;;;;1739863;28;20191;-72
2022/09/25 02:12:22;;;;;;;0.00;0.00;;;;;;;;;;1739387;28;20199;-72
2022/09/25 02:13:14;;;;;;;0.00;0.00;;;;;;;;;;1739542;28;20211;-72
2022/09/25 02:14:09;;;;;;;0.00;0.00;;;;;;;;;;1732799;28;20286;-72
2022/09/25 02:15:03;;;;;;;0.00;0.00;;;;;;;;;;1733557;28;20214;-72
2022/09/25 02:15:57;;;;;;;0.00;0.00;;;;;;;;;;1738953;28;20226;-73
2022/09/25 02:16:49;;;;;;;0.00;0.00;;;;;;;;;;1738654;28;20283;-72
2022/09/25 02:21:23;;;;;;;0.00;0.00;;;;;;;;;;1739028;28;20314;-72
2022/09/25 02:22:18;;;;;;;0.00;0.00;;;;;;;;;;1738582;28;20245;-72
2022/09/25 02:23:13;;;;;;;0.00;0.00;;;;;;;;;;1738678;28;20791;-72
2022/09/25 02:24:10;;;;;;;0.00;0.00;;;;;;;;;;1732153;28;20196;-72
2022/09/25 02:25:07;;;;;;;0.00;0.00;;;;;;;;;;1733677;28;20204;-72
2022/09/25 02:26:02;;;;;;;0.00;0.00;;;;;;;;;;1739118;28;20323;-72
2022/09/25 02:26:54;;;;;;;0.00;0.00;;;;;;;;;;1739400;28;20198;-72
2022/09/25 02:27:45;;;;;;;0.00;0.00;;;;;;;;;;1739460;28;20206;-72
2022/09/25 02:28:36;;;;;;;0.00;0.00;;;;;;;;;;1739415;28;20195;-72
2022/09/25 02:29:28;;;;;;;0.00;0.00;;;;;;;;;;1739498;28;20213;-72
2022/09/25 02:30:19;;;;;;;0.00;0.00;;;;;;;;;;1739764;28;20241;-72
2022/09/25 02:31:13;;;;;;;0.00;0.00;;;;;;;;;;1739715;28;20625;-72
2022/09/25 02:32:05;;;;;;;0.00;0.00;;;;;;;;;;1740912;28;20280;-72
2022/09/25 02:32:57;;;;;;;0.00;0.00;;;;;;;;;;1740862;28;20595;-72
2022/09/25 02:33:49;;;;;;;0.00;0.00;;;;;;;;;;1740698;28;20273;-72
2022/09/25 02:34:41;;;;;;;0.00;0.00;;;;;;;;;;1740388;28;20202;-72
2022/09/25 02:35:32;;;;;;;0.00;0.00;;;;;;;;;;1740534;28;20293;-72
2022/09/25 02:36:24;;;;;;;0.00;0.00;;;;;;;;;;1740300;28;20256;-72
2022/09/25 02:37:16;;;;;;;0.00;0.00;;;;;;;;;;1739951;28;20357;-72
2022/09/25 02:38:08;;;;;;;0.00;0.00;;;;;;;;;;1740544;28;20766;-72
2022/09/25 02:39:01;;;;;;;0.00;0.00;;;;;;;;;;1740510;28;20210;-72
2022/09/25 02:39:55;;;;;;;0.00;0.00;;;;;;;;;;1740670;28;20495;-72
2022/09/25 02:40:48;;;;;;;0.00;0.00;;;;;;;;;;1741215;28;20264;-72
2022/09/25 02:41:50;;;;;;;0.00;0.00;;;;;;;;;;1740954;28;20206;-72
2022/09/25 02:42:47;;;;;;;0.00;0.00;;;;;;;;;;1740470;28;20469;-72
2022/09/25 02:43:43;;;;;;;0.00;0.00;;;;;;;;;;1740100;28;20189;-72
2022/09/25 02:44:41;;;;;;;0.00;0.00;;;;;;;;;;1740285;28;20256;-72
2022/09/25 02:45:38;;;;;;;0.00;0.00;;;;;;;;;;1740316;28;20225;-72
2022/09/25 02:46:33;;;;;;;0.00;0.00;;;;;;;;;;1740305;28;20199;-72
2022/09/25 02:47:33;;;;;;;0.00;0.00;;;;;;;;;;1740180;28;20230;-72
2022/09/25 02:48:28;;;;;;;0.00;0.00;;;;;;;;;;1739999;28;20279;-72
2022/09/25 02:49:25;;;;;;;0.00;0.00;;;;;;;;;;1739647;28;20229;-72
2022/09/25 02:50:20;;;;;;;0.00;0.00;;;;;;;;;;1740512;28;20195;-72
2022/09/25 02:51:20;;;;;;;0.00;0.00;;;;;;;;;;1740129;28;20206;-72
2022/09/25 02:52:11;;;;;;;0.00;0.00;;;;;;;;;;1739944;28;20579;-72
2022/09/25 02:53:08;;;;;;;0.00;0.00;;;;;;;;;;1740411;28;20199;-72
2022/09/25 02:54:05;;;;;;;0.00;0.00;;;;;;;;;;1739825;28;20234;-72
2022/09/25 02:55:00;;;;;;;0.00;0.00;;;;;;;;;;1739955;28;20569;-72
2022/09/25 02:55:53;;;;;;;0.00;0.00;;;;;;;;;;1740394;28;20311;-72
2022/09/25 02:56:48;;;;;;;0.00;0.00;;;;;;;;;;1740051;28;20207;-72
2022/09/25 02:57:42;;;;;;;0.00;0.00;;;;;;;;;;1740246;28;20207;-72
2022/09/25 02:58:37;;;;;;;0.00;0.00;;;;;;;;;;1740167;28;20317;-72
2022/09/25 02:59:32;;;;;;;0.00;0.00;;;;;;;;;;1739874;28;20207;-72
2022/09/25 03:00:24;;;;;;;0.00;0.00;;;;;;;;;;1740482;28;20183;-72
2022/09/25 03:01:17;;;;;;;0.00;0.00;;;;;;;;;;1740242;28;20874;-71
2022/09/25 03:02:11;;;;;;;0.00;0.00;;;;;;;;;;1739839;28;20261;-71
2022/09/25 03:03:06;;;;;;;0.00;0.00;;;;;;;;;;1740383;28;20202;-71
2022/09/25 03:05:48;;;;;;;0.00;0.00;;;;;;;;;;1740426;28;20651;-72
2022/09/25 03:06:39;;;;;;;0.00;0.00;;;;;;;;;;1738379;28;20285;-72
2022/09/25 03:08:36;;;;;;;0.00;0.00;;;;;;;;;;1740343;28;20435;-71
2022/09/25 03:08:45;;;;;;;0.00;0.00;;;;;;;;;;1739913;28;20629;-71
2022/09/25 03:09:39;;;;;;;0.00;0.00;;;;;;;;;;1740230;28;20195;-72
2022/09/25 03:10:32;;;;;;;0.00;0.00;;;;;;;;;;1740234;28;20293;-71
2022/09/25 03:11:25;;;;;;;0.00;0.00;;;;;;;;;;1740638;28;20267;-72
2022/09/25 03:12:17;;;;;;;0.00;0.00;;;;;;;;;;1739972;28;20214;-72
2022/09/25 03:13:15;;;;;;;0.00;0.00;;;;;;;;;;1740523;28;20415;-72
2022/09/25 03:14:07;;;;;;;0.00;0.00;;;;;;;;;;1740405;28;20226;-72
2022/09/25 03:14:58;;;;;;;0.00;0.00;;;;;;;;;;1739953;28;20784;-72
2022/09/25 03:15:51;;;;;;;0.00;0.00;;;;;;;;;;1740609;28;20226;-72
2022/09/25 03:16:45;;;;;;;0.00;0.00;;;;;;;;;;1740086;28;20214;-71
2022/09/25 03:17:39;;;;;;;0.00;0.00;;;;;;;;;;1740287;28;20199;-71
2022/09/25 03:18:30;;;;;;;0.00;0.00;;;;;;;;;;1739947;28;20203;-71
2022/09/25 03:19:22;;;;;;;0.00;0.00;;;;;;;;;;1740238;28;20521;-71
2022/09/25 03:20:13;;;;;;;0.00;0.00;;;;;;;;;;1740185;28;20248;-71
2022/09/25 03:21:06;;;;;;;0.00;0.00;;;;;;;;;;1740528;28;20214;-72
2022/09/25 03:21:57;;;;;;;0.00;0.00;;;;;;;;;;1740087;28;20210;-72
2022/09/25 03:22:49;;;;;;;0.00;0.00;;;;;;;;;;1740341;28;20213;-72
2022/09/25 03:23:40;;;;;;;0.00;0.00;;;;;;;;;;1740282;28;20215;-72
2022/09/25 03:24:32;;;;;;;0.00;0.00;;;;;;;;;;1740345;28;20617;-72
2022/09/25 03:25:23;;;;;;;0.00;0.00;;;;;;;;;;1740243;28;20270;-72
2022/09/25 03:26:15;;;;;;;0.00;0.00;;;;;;;;;;1740385;28;20207;-72
2022/09/25 03:27:06;;;;;;;0.03;0.03;;;;;;;;;;1740193;28;20636;-72
2022/09/25 03:27:58;;;;;;;0.00;0.00;;;;;;;;;;1740330;28;20234;-72
2022/09/25 03:28:49;;;;;;;0.00;0.00;;;;;;;;;;1739873;28;20259;-72
2022/09/25 03:29:41;;;;;;;0.00;0.00;;;;;;;;;;1740267;28;20210;-72
2022/09/25 03:30:32;;;;;;;0.00;0.00;;;;;;;;;;1739974;28;20202;-72
2022/09/25 03:31:24;;;;;;;0.00;0.00;;;;;;;;;;1740519;28;20691;-71
2022/09/25 03:32:15;;;;;;;0.00;0.00;;;;;;;;;;1740021;28;20612;-71
2022/09/25 03:33:09;;;;;;;0.00;0.00;;;;;;;;;;1740428;28;20563;-71
2022/09/25 03:34:00;;;;;;;0.00;0.00;;;;;;;;;;1740118;28;20223;-71
2022/09/25 03:34:52;;;;;;;0.00;0.00;;;;;;;;;;1740050;28;20706;-71
2022/09/25 03:35:43;;;;;;;0.00;0.00;;;;;;;;;;1740472;28;20363;-71
2022/09/25 03:36:35;;;;;;;0.00;0.00;;;;;;;;;;1739752;28;20250;-72
2022/09/25 03:37:26;;;;;;;0.00;0.00;;;;;;;;;;1740082;28;20260;-72
2022/09/25 03:38:17;;;;;;;0.00;0.00;;;;;;;;;;1740059;28;20203;-72
2022/09/25 03:39:10;;;;;;;0.00;0.00;;;;;;;;;;1739955;28;20297;-72
2022/09/25 03:40:02;;;;;;;0.00;0.00;;;;;;;;;;1739981;28;20210;-72
2022/09/25 03:40:54;;;;;;;0.00;0.00;;;;;;;;;;1739878;28;20247;-72
2022/09/25 03:41:46;;;;;;;0.00;0.00;;;;;;;;;;1740002;28;20328;-72
2022/09/25 03:42:38;;;;;;;0.00;0.00;;;;;;;;;;1740376;28;20335;-72
2022/09/25 03:43:31;;;;;;;0.00;0.00;;;;;;;;;;1739090;28;20211;-72
2022/09/25 03:44:23;;;;;;;0.00;0.00;;;;;;;;;;1740277;28;20274;-72
2022/09/25 03:45:14;;;;;;;0.00;0.00;;;;;;;;;;1740219;28;20214;-72
2022/09/25 03:46:07;;;;;;;0.00;0.00;;;;;;;;;;1740134;28;20705;-72
2022/09/25 03:46:58;;;;;;;0.00;0.00;;;;;;;;;;1739781;28;20226;-71
2022/09/25 03:47:50;;;;;;;0.00;0.00;;;;;;;;;;1740154;28;20251;-71
2022/09/25 03:48:42;;;;;;;0.00;0.00;;;;;;;;;;1740042;28;20210;-71
2022/09/25 03:49:34;;;;;;;0.00;0.00;;;;;;;;;;1739720;28;20512;-71
2022/09/25 03:50:26;;;;;;;0.00;0.00;;;;;;;;;;1740176;28;20674;-71
2022/09/25 03:51:19;;;;;;;0.00;0.00;;;;;;;;;;1739769;28;20624;-72
2022/09/25 03:52:11;;;;;;;0.00;0.00;;;;;;;;;;1739783;28;20267;-72
2022/09/25 03:53:03;;;;;;;0.00;0.00;;;;;;;;;;1740242;28;20203;-72
2022/09/25 03:53:54;;;;;;;0.00;0.00;;;;;;;;;;1739623;28;20268;-72
2022/09/25 03:54:46;;;;;;;0.00;0.00;;;;;;;;;;1740231;28;20214;-72
2022/09/25 03:55:37;;;;;;;0.00;0.00;;;;;;;;;;1740147;28;20353;-72
2022/09/25 03:56:29;;;;;;;0.00;0.00;;;;;;;;;;1739917;28;20211;-72
2022/09/25 03:57:20;;;;;;;0.00;0.00;;;;;;;;;;1739915;28;20206;-72
2022/09/25 03:58:13;;;;;;;0.00;0.00;;;;;;;;;;1739971;28;20478;-72
2022/09/25 03:59:04;;;;;;;0.00;0.00;;;;;;;;;;1740040;28;20676;-72
2022/09/25 03:59:59;;;;;;;0.00;0.00;;;;;;;;;;1739495;28;20290;-72
2022/09/25 04:00:51;;;;;;;0.00;0.00;;;;;;;;;;1740411;28;20226;-72
2022/09/25 04:01:44;;;;;;;0.00;0.00;;;;;;;;;;1739618;28;20263;-71
2022/09/25 04:02:35;;;;;;;0.00;0.00;;;;;;;;;;1740186;28;20290;-71
2022/09/25 04:03:28;;;;;;;0.00;0.00;;;;;;;;;;1739859;28;20202;-71
2022/09/25 04:04:21;;;;;;;0.00;0.00;;;;;;;;;;1739872;28;20518;-71
2022/09/25 04:05:13;;;;;;;0.00;0.00;;;;;;;;;;1740175;28;20289;-71
2022/09/25 04:06:05;;;;;;;0.00;0.00;;;;;;;;;;1739889;28;20353;-71
2022/09/25 04:06:57;;;;;;;0.00;0.00;;;;;;;;;;1739592;28;20268;-71
2022/09/25 04:07:48;;;;;;;0.00;0.00;;;;;;;;;;1739946;28;20263;-71
2022/09/25 04:08:40;;;;;;;0.00;0.00;;;;;;;;;;1739914;28;20529;-71
2022/09/25 04:09:31;;;;;;;0.00;0.00;;;;;;;;;;1739857;28;20249;-71
2022/09/25 04:10:23;;;;;;;0.00;0.00;;;;;;;;;;1740033;28;20195;-71
2022/09/25 04:11:15;;;;;;;0.00;0.00;;;;;;;;;;1740127;28;20222;-71
2022/09/25 04:12:07;;;;;;;0.00;0.00;;;;;;;;;;1739590;28;20261;-71
2022/09/25 04:12:58;;;;;;;0.00;0.00;;;;;;;;;;1740040;28;20218;-71
2022/09/25 04:13:51;;;;;;;0.00;0.00;;;;;;;;;;1739618;28;20334;-71
2022/09/25 04:14:44;;;;;;;0.00;0.00;;;;;;;;;;1740765;28;20536;-71
2022/09/25 04:15:36;;;;;;;0.00;0.00;;;;;;;;;;1740656;28;20226;-71
2022/09/25 04:16:30;;;;;;;0.00;0.00;;;;;;;;;;1740688;28;20211;-72
2022/09/25 04:17:22;;;;;;;0.00;0.00;;;;;;;;;;1740524;28;20219;-72
2022/09/25 04:18:13;;;;;;;0.00;0.00;;;;;;;;;;1740172;28;20203;-72
2022/09/25 04:19:05;;;;;;;0.00;0.00;;;;;;;;;;1739942;28;20217;-72
2022/09/25 04:19:58;;;;;;;0.00;0.00;;;;;;;;;;1739524;28;20215;-72
2022/09/25 04:20:50;;;;;;;0.00;0.00;;;;;;;;;;1740230;28;20207;-72
2022/09/25 04:21:41;;;;;;;0.00;0.00;;;;;;;;;;1739704;28;20383;-72
2022/09/25 04:22:33;;;;;;;0.00;0.00;;;;;;;;;;1739677;28;20199;-72
2022/09/25 04:23:24;;;;;;;0.00;0.00;;;;;;;;;;1739939;28;20199;-72
2022/09/25 04:25:26;;;;;;;0.00;0.00;;;;;;;;;;1740057;28;20691;-72
2022/09/25 04:26:17;;;;;;;0.00;0.00;;;;;;;;;;1739716;28;20264;-71
2022/09/25 04:27:09;;;;;;;0.00;0.00;;;;;;;;;;1739718;28;20199;-71
2022/09/25 04:28:00;;;;;;;0.00;0.00;;;;;;;;;;1739848;28;20248;-71
2022/09/25 04:28:52;;;;;;;0.00;0.00;;;;;;;;;;1739737;28;20253;-71
2022/09/25 04:29:43;;;;;;;0.00;0.00;;;;;;;;;;1739847;28;20540;-71
2022/09/25 04:30:35;;;;;;;0.00;0.00;;;;;;;;;;1739857;28;20250;-71
2022/09/25 04:31:26;;;;;;;0.00;0.00;;;;;;;;;;1739971;28;20211;-71
2022/09/25 04:33:46;;;;;;;0.00;0.00;;;;;;;;;;1739598;28;20187;-71
2022/09/25 04:34:37;;;;;;;0.00;0.00;;;;;;;;;;1740062;28;20226;-71
2022/09/25 04:35:31;;;;;;;0.00;0.00;;;;;;;;;;1740599;28;20210;-71
2022/09/25 04:36:22;;;;;;;0.00;0.00;;;;;;;;;;1740437;28;20234;-71
2022/09/25 04:37:14;;;;;;;0.00;0.00;;;;;;;;;;1739490;28;20241;-71
2022/09/25 04:38:05;;;;;;;0.00;0.00;;;;;;;;;;1733558;28;20211;-71
2022/09/25 04:38:57;;;;;;;0.00;0.00;;;;;;;;;;1732401;28;20269;-71
2022/09/25 04:39:48;;;;;;;0.00;0.00;;;;;;;;;;1732752;28;20540;-71
2022/09/25 04:40:40;;;;;;;0.00;0.00;;;;;;;;;;1732980;28;20608;-71
2022/09/25 04:41:32;;;;;;;0.00;0.00;;;;;;;;;;1732825;28;20271;-71
2022/09/25 04:42:24;;;;;;;0.00;0.00;;;;;;;;;;1732861;28;20199;-71
2022/09/25 04:43:15;;;;;;;0.00;0.00;;;;;;;;;;1732408;28;20545;-71
2022/09/25 04:44:07;;;;;;;0.00;0.00;;;;;;;;;;1732846;28;20199;-71
2022/09/25 04:44:58;;;;;;;0.00;0.00;;;;;;;;;;1734002;28;20294;-71
2022/09/25 04:45:50;;;;;;;0.00;0.00;;;;;;;;;;1739842;28;20477;-71
2022/09/25 04:46:41;;;;;;;0.00;0.00;;;;;;;;;;1739495;28;20554;-71
2022/09/25 04:47:33;;;;;;;0.00;0.00;;;;;;;;;;1729112;28;20199;-71
2022/09/25 04:48:24;;;;;;;0.00;0.00;;;;;;;;;;1732537;28;20291;-71
2022/09/25 04:49:16;;;;;;;0.00;0.00;;;;;;;;;;1732417;28;20281;-71
2022/09/25 04:50:07;;;;;;;0.00;0.00;;;;;;;;;;1733021;28;20591;-71
2022/09/25 04:51:01;;;;;;;0.00;0.00;;;;;;;;;;1733680;28;20214;-71
2022/09/25 04:51:52;;;;;;;0.00;0.00;;;;;;;;;;1733387;28;20207;-71
2022/09/25 04:52:44;;;;;;;0.00;0.00;;;;;;;;;;1733722;28;20269;-71
2022/09/25 04:53:36;;;;;;;0.00;0.00;;;;;;;;;;1733064;28;20276;-71
2022/09/25 04:54:28;;;;;;;0.00;0.00;;;;;;;;;;1733154;28;20267;-71
2022/09/25 04:55:20;;;;;;;0.00;0.00;;;;;;;;;;1732842;28;20276;-71
2022/09/25 04:56:12;;;;;;;0.00;0.00;;;;;;;;;;1732950;28;20210;-72
2022/09/25 04:57:04;;;;;;;0.00;0.00;;;;;;;;;;1732830;28;20572;-72
2022/09/25 04:57:56;;;;;;;0.00;0.00;;;;;;;;;;1732580;28;20237;-72
2022/09/25 04:58:49;;;;;;;0.00;0.00;;;;;;;;;;1732383;28;20629;-72
2022/09/25 04:59:40;;;;;;;0.00;0.00;;;;;;;;;;1732287;28;20369;-72
2022/09/25 05:00:33;;;;;;;0.00;0.00;;;;;;;;;;1732803;28;20257;-72
2022/09/25 05:01:24;;;;;;;0.00;0.00;;;;;;;;;;1732834;28;20208;-72
2022/09/25 05:02:16;;;;;;;0.00;0.00;;;;;;;;;;1738654;28;20203;-72
2022/09/25 05:03:07;;;;;;;0.00;0.00;;;;;;;;;;1739580;28;20206;-72
2022/09/25 05:03:59;;;;;;;0.03;0.03;;;;;;;;;;1738959;28;20207;-72
2022/09/25 05:04:50;;;;;;;0.00;0.00;;;;;;;;;;1739427;28;20725;-72
2022/09/25 05:05:42;;;;;;;0.00;0.00;;;;;;;;;;1739943;28;20206;-72
2022/09/25 05:06:34;;;;;;;0.00;0.00;;;;;;;;;;1739437;28;20206;-72
2022/09/25 05:07:26;;;;;;;0.00;0.00;;;;;;;;;;1739569;28;20218;-72
2022/09/25 05:08:17;;;;;;;0.00;0.00;;;;;;;;;;1739327;28;20587;-72
2022/09/25 05:09:09;;;;;;;0.00;0.00;;;;;;;;;;1739232;28;20218;-72
2022/09/25 05:10:00;;;;;;;0.00;0.00;;;;;;;;;;1739304;28;20539;-72
2022/09/25 05:10:52;;;;;;;0.00;0.00;;;;;;;;;;1739948;28;20218;-72
2022/09/25 05:11:45;;;;;;;0.00;0.00;;;;;;;;;;1739487;28;20637;-71
2022/09/25 05:12:37;;;;;;;0.00;0.00;;;;;;;;;;1739497;28;20211;-71
2022/09/25 05:13:29;;;;;;;0.00;0.00;;;;;;;;;;1739357;28;20505;-71
2022/09/25 05:14:21;;;;;;;0.00;0.00;;;;;;;;;;1739487;28;20203;-71
2022/09/25 05:15:12;;;;;;;0.00;0.00;;;;;;;;;;1740408;28;20206;-71
2022/09/25 05:16:04;;;;;;;0.00;0.00;;;;;;;;;;1740262;28;20295;-71
2022/09/25 05:16:56;;;;;;;0.00;0.00;;;;;;;;;;1740197;28;20218;-71
2022/09/25 05:17:48;;;;;;;0.00;0.00;;;;;;;;;;1740181;28;20206;-71
2022/09/25 05:18:39;;;;;;;0.00;0.00;;;;;;;;;;1739548;28;20260;-71
2022/09/25 05:19:31;;;;;;;0.00;0.00;;;;;;;;;;1739123;28;20207;-71
2022/09/25 05:20:22;;;;;;;0.00;0.00;;;;;;;;;;1739525;28;20680;-71
2022/09/25 05:21:14;;;;;;;0.00;0.00;;;;;;;;;;1739563;28;20616;-71
2022/09/25 05:22:06;;;;;;;0.00;0.00;;;;;;;;;;1739259;28;20214;-71
2022/09/25 05:22:58;;;;;;;0.00;0.00;;;;;;;;;;1739571;28;20221;-71
2022/09/25 05:23:49;;;;;;;0.00;0.00;;;;;;;;;;1739391;28;20345;-71
2022/09/25 05:24:41;;;;;;;0.00;0.00;;;;;;;;;;1739461;28;20230;-71
2022/09/25 05:25:32;;;;;;;0.00;0.00;;;;;;;;;;1739516;28;20260;-72
2022/09/25 05:26:25;;;;;;;0.00;0.00;;;;;;;;;;1739821;28;20302;-72
2022/09/25 05:27:16;;;;;;;0.00;0.00;;;;;;;;;;1740134;28;20752;-72
2022/09/25 05:28:10;;;;;;;0.00;0.00;;;;;;;;;;1740394;28;20238;-72